createdAt,value
2022-08-17T00:01:53.237Z,19.55
2022-08-17T00:04:45.848Z,19.55
2022-08-17T00:07:35.534Z,19.49
2022-08-17T00:10:23.082Z,19.51
2022-08-17T00:13:14.318Z,19.49
2022-08-17T00:16:08.485Z,19.48
2022-08-17T00:19:07.008Z,19.50
2022-08-17T00:22:32.106Z,19.52
2022-08-17T00:25:13.110Z,19.43
2022-08-17T00:28:00.573Z,19.41
2022-08-17T00:30:53.033Z,19.35
2022-08-17T00:33:42.568Z,19.23
2022-08-17T00:36:30.247Z,19.21
2022-08-17T00:39:17.323Z,19.16
2022-08-17T00:42:14.091Z,19.28
2022-08-17T00:45:04.713Z,19.16
2022-08-17T00:47:51.872Z,19.18
2022-08-17T00:50:45.272Z,19.12
2022-08-17T00:53:35.504Z,19.16
2022-08-17T00:56:38.062Z,19.13
2022-08-17T00:59:31.067Z,19.18
2022-08-17T01:02:20.114Z,19.15
2022-08-17T01:05:08.487Z,19.21
2022-08-17T01:07:55.973Z,19.16
2022-08-17T01:10:59.260Z,19.13
2022-08-17T01:13:48.018Z,19.04
2022-08-17T01:16:36.212Z,19.10
2022-08-17T01:19:30.274Z,19.07
2022-08-17T01:22:22.425Z,19.07
2022-08-17T01:25:11.460Z,19.11
2022-08-17T01:27:58.577Z,19.11
2022-08-17T01:30:58.580Z,19.08
2022-08-17T01:33:46.510Z,19.09
2022-08-17T01:36:33.685Z,19.17
2022-08-17T01:39:35.363Z,19.09
2022-08-17T01:42:30.805Z,18.96
2022-08-17T01:45:24.762Z,18.95
2022-08-17T01:48:12.675Z,18.92
2022-08-17T01:51:00.972Z,18.93
2022-08-17T01:53:52.458Z,18.86
2022-08-17T01:56:43.823Z,18.77
2022-08-17T01:59:34.443Z,18.74
2022-08-17T02:02:31.224Z,18.70
2022-08-17T02:05:18.736Z,18.70
2022-08-17T02:08:07.536Z,18.73
2022-08-17T02:10:55.218Z,18.65
2022-08-17T02:13:43.879Z,18.66
2022-08-17T02:16:40.545Z,18.68
2022-08-17T02:19:27.799Z,18.64
2022-08-17T02:22:15.804Z,18.57
2022-08-17T02:25:06.219Z,18.54
2022-08-17T02:27:53.289Z,18.51
2022-08-17T02:30:50.104Z,18.47
2022-08-17T02:34:03.352Z,18.40
2022-08-17T02:36:53.569Z,18.31
2022-08-17T02:39:42.783Z,18.29
2022-08-17T02:42:34.191Z,18.29
2022-08-17T02:45:23.448Z,18.23
2022-08-17T02:48:10.990Z,18.22
2022-08-17T02:50:58.148Z,18.19
2022-08-17T02:53:45.152Z,18.15
2022-08-17T02:56:32.174Z,18.18
2022-08-17T02:59:19.308Z,18.20
2022-08-17T03:02:08.487Z,18.21
2022-08-17T03:04:55.900Z,18.17
2022-08-17T03:07:43.266Z,18.08
2022-08-17T03:10:31.364Z,18.04
2022-08-17T03:13:18.479Z,17.97
2022-08-17T03:16:05.819Z,17.92
2022-08-17T03:18:54.843Z,17.88
2022-08-17T03:21:41.875Z,17.88
2022-08-17T03:24:29.273Z,17.86
2022-08-17T03:27:16.690Z,17.81
2022-08-17T03:30:08.645Z,17.80
2022-08-17T03:32:57.937Z,17.83
2022-08-17T03:35:45.119Z,17.80
2022-08-17T03:38:39.245Z,17.74
2022-08-17T03:41:26.525Z,17.75
2022-08-17T03:44:13.510Z,17.72
2022-08-17T03:47:19.181Z,17.67
2022-08-17T03:50:27.344Z,17.61
2022-08-17T03:53:35.868Z,17.59
2022-08-17T03:56:41.437Z,17.55
2022-08-17T03:59:28.992Z,17.55
2022-08-17T04:02:21.469Z,17.63
2022-08-17T04:05:09.446Z,17.61
2022-08-17T04:07:56.598Z,17.56
2022-08-17T04:10:45.229Z,17.48
2022-08-17T04:13:32.445Z,17.44
2022-08-17T04:16:19.506Z,17.40
2022-08-17T04:19:06.859Z,17.43
2022-08-17T04:21:53.854Z,17.38
2022-08-17T04:24:40.854Z,17.43
2022-08-17T04:27:27.893Z,17.47
2022-08-17T04:30:15.098Z,17.55
2022-08-17T04:33:07.419Z,17.56
2022-08-17T04:36:00.929Z,17.61
2022-08-17T04:38:47.930Z,17.66
2022-08-17T04:41:53.206Z,17.67
2022-08-17T04:44:40.249Z,17.85
2022-08-17T04:47:27.248Z,17.92
2022-08-17T04:50:14.222Z,17.89
2022-08-17T04:53:01.563Z,18.01
2022-08-17T04:55:51.392Z,17.99
2022-08-17T04:58:38.851Z,18.18
2022-08-17T05:01:28.354Z,18.36
2022-08-17T05:04:34.825Z,18.48
2022-08-17T05:07:24.610Z,18.57
2022-08-17T05:10:13.330Z,18.70
2022-08-17T05:13:02.681Z,18.73
2022-08-17T05:15:53.397Z,18.97
2022-08-17T05:18:40.384Z,19.14
2022-08-17T05:21:27.618Z,19.32
2022-08-17T05:24:38.466Z,19.49
2022-08-17T05:27:22.822Z,19.64
2022-08-17T05:30:11.091Z,19.71
2022-08-17T05:33:10.873Z,19.74
2022-08-17T05:35:59.936Z,19.70
2022-08-17T05:38:46.918Z,19.82
2022-08-17T05:41:33.994Z,19.93
2022-08-17T05:44:20.950Z,20.15
2022-08-17T05:47:09.824Z,20.12
2022-08-17T05:49:58.277Z,20.43
2022-08-17T05:53:01.516Z,20.56
2022-08-17T05:56:09.880Z,20.71
2022-08-17T05:59:26.447Z,20.75
2022-08-17T06:02:19.595Z,20.81
2022-08-17T06:05:09.502Z,21.04
2022-08-17T06:07:57.102Z,21.14
2022-08-17T06:10:47.941Z,21.48
2022-08-17T06:14:22.277Z,21.81
2022-08-17T06:17:15.375Z,21.83
2022-08-17T06:20:08.558Z,21.95
2022-08-17T06:23:04.388Z,21.71
2022-08-17T06:25:57.655Z,21.69
2022-08-17T06:28:53.027Z,21.94
2022-08-17T06:31:40.814Z,21.99
2022-08-17T06:34:28.153Z,22.17
2022-08-17T06:37:31.255Z,22.25
2022-08-17T06:40:18.209Z,22.43
2022-08-17T06:43:25.425Z,22.60
2022-08-17T06:46:40.959Z,22.80
2022-08-17T06:49:47.855Z,22.99
2022-08-17T06:52:52.534Z,23.40
2022-08-17T06:55:50.553Z,23.18
2022-08-17T06:58:40.420Z,23.40
2022-08-17T07:01:35.954Z,23.81
2022-08-17T07:04:28.179Z,24.07
2022-08-17T07:07:35.582Z,24.15
2022-08-17T07:10:25.373Z,24.44
2022-08-17T07:13:25.630Z,24.34
2022-08-17T07:16:28.268Z,24.41
2022-08-17T07:19:25.542Z,24.56
2022-08-17T07:22:21.534Z,24.60
2022-08-17T07:25:12.523Z,24.50
2022-08-17T07:28:07.061Z,24.55
2022-08-17T07:30:54.819Z,24.64
2022-08-17T07:33:59.824Z,24.99
2022-08-17T07:36:46.839Z,25.26
2022-08-17T07:39:33.870Z,25.36
2022-08-17T07:42:21.526Z,25.76
2022-08-17T07:45:29.011Z,25.95
2022-08-17T07:48:23.395Z,25.93
2022-08-17T07:51:34.013Z,26.15
2022-08-17T07:54:30.871Z,26.25
2022-08-17T07:57:25.423Z,26.68
2022-08-17T08:00:29.177Z,26.74
2022-08-17T08:03:31.961Z,26.56
2022-08-17T08:06:25.069Z,26.85
2022-08-17T08:09:32.787Z,27.07
2022-08-17T08:12:34.024Z,27.27
2022-08-17T08:15:35.450Z,27.12
2022-08-17T08:18:53.387Z,27.24
2022-08-17T08:21:51.632Z,27.43
2022-08-17T08:24:57.107Z,27.51
2022-08-17T08:27:53.134Z,27.18
2022-08-17T08:30:47.931Z,27.56
2022-08-17T08:33:51.870Z,27.56
2022-08-17T08:37:17.583Z,27.79
2022-08-17T08:40:45.713Z,28.48
2022-08-17T08:43:36.399Z,28.63
2022-08-17T08:46:32.351Z,28.40
2022-08-17T08:49:38.976Z,28.39
2022-08-17T08:52:39.529Z,28.21
2022-08-17T08:55:44.909Z,28.27
2022-08-17T08:59:03.252Z,28.47
2022-08-17T09:02:17.594Z,28.46
2022-08-17T09:05:26.278Z,28.56
2022-08-17T09:08:21.616Z,28.56
2022-08-17T09:11:21.500Z,28.63
2022-08-17T09:14:28.785Z,28.60
2022-08-17T09:17:21.463Z,28.76
2022-08-17T09:20:28.488Z,28.93
2022-08-17T09:23:32.809Z,29.17
2022-08-17T09:26:31.038Z,29.13
2022-08-17T09:29:18.618Z,29.50
2022-08-17T09:32:32.722Z,29.81
2022-08-17T09:35:38.016Z,29.92
2022-08-17T09:38:41.773Z,29.57
2022-08-17T09:41:36.473Z,29.69
2022-08-17T09:44:42.882Z,29.78
2022-08-17T09:47:43.422Z,29.98
2022-08-17T09:50:55.320Z,29.88
2022-08-17T09:53:50.589Z,30.35
2022-08-17T09:57:27.917Z,30.32
2022-08-17T10:00:19.114Z,30.17
2022-08-17T10:03:11.949Z,30.48
2022-08-17T10:06:12.706Z,30.63
2022-08-17T10:09:08.922Z,31.12
2022-08-17T10:12:20.673Z,30.94
2022-08-17T10:15:22.514Z,31.03
2022-08-17T10:18:18.538Z,30.88
2022-08-17T10:21:30.986Z,30.93
2022-08-17T10:25:21.807Z,30.97
2022-08-17T10:28:05.786Z,31.27
2022-08-17T10:31:17.033Z,31.31
2022-08-17T10:34:29.296Z,31.70
2022-08-17T10:37:25.357Z,31.61
2022-08-17T10:40:45.726Z,32.03
2022-08-17T10:44:38.520Z,32.77
2022-08-17T10:47:12.788Z,32.23
2022-08-17T10:50:38.304Z,31.78
2022-08-17T10:53:31.491Z,31.96
2022-08-17T10:56:22.217Z,31.82
2022-08-17T10:59:09.395Z,32.17
2022-08-17T11:02:12.518Z,31.95
2022-08-17T11:05:03.484Z,32.13
2022-08-17T11:08:24.149Z,32.05
2022-08-17T11:11:24.080Z,31.82
2022-08-17T11:15:03.688Z,31.95
2022-08-17T11:18:08.708Z,32.33
2022-08-17T11:21:04.250Z,31.81
2022-08-17T11:23:55.963Z,32.11
2022-08-17T11:26:58.929Z,31.92
2022-08-17T11:29:52.649Z,31.77
2022-08-17T11:32:51.982Z,31.80
2022-08-17T11:35:51.650Z,32.15
2022-08-17T11:39:23.184Z,31.39
2022-08-17T11:42:34.486Z,31.89
2022-08-17T11:45:33.858Z,31.75
2022-08-17T11:49:07.574Z,31.50
2022-08-17T11:52:11.759Z,31.76
2022-08-17T11:55:17.666Z,32.08
2022-08-17T11:58:29.773Z,32.32
2022-08-17T12:01:22.824Z,32.20
2022-08-17T12:04:28.833Z,32.72
2022-08-17T12:07:20.645Z,32.76
2022-08-17T12:10:08.710Z,32.39
2022-08-17T12:12:56.310Z,32.25
2022-08-17T12:15:49.782Z,31.89
2022-08-17T12:18:39.568Z,31.84
2022-08-17T12:21:49.027Z,31.74
2022-08-17T12:25:17.668Z,31.90
2022-08-17T12:28:21.601Z,31.58
2022-08-17T12:31:26.211Z,31.61
2022-08-17T12:34:23.713Z,31.74
2022-08-17T12:37:24.870Z,31.63
2022-08-17T12:40:23.310Z,31.54
2022-08-17T12:43:21.913Z,31.47
2022-08-17T12:46:17.467Z,31.20
2022-08-17T12:49:38.873Z,31.27
2022-08-17T12:52:29.419Z,31.27
2022-08-17T12:55:24.661Z,31.92
2022-08-17T12:58:22.588Z,32.13
2022-08-17T13:01:16.617Z,32.26
2022-08-17T13:04:06.058Z,32.42
2022-08-17T13:06:58.192Z,32.45
2022-08-17T13:09:51.494Z,32.08
2022-08-17T13:12:39.631Z,31.94
2022-08-17T13:15:31.318Z,32.14
2022-08-17T13:18:39.004Z,32.25
2022-08-17T13:21:30.717Z,32.57
2022-08-17T13:24:38.132Z,32.55
2022-08-17T13:27:27.715Z,32.01
2022-08-17T13:30:23.964Z,32.45
2022-08-17T13:33:26.083Z,32.00
2022-08-17T13:36:34.023Z,31.82
2022-08-17T13:39:25.499Z,31.60
2022-08-17T13:42:31.267Z,31.29
2022-08-17T13:45:36.156Z,31.70
2022-08-17T13:48:29.622Z,31.42
2022-08-17T13:51:28.348Z,31.71
2022-08-17T13:54:24.586Z,31.98
2022-08-17T13:57:25.739Z,31.98
2022-08-17T14:00:33.850Z,31.72
2022-08-17T14:03:21.134Z,31.60
2022-08-17T14:06:08.292Z,31.43
2022-08-17T14:08:56.171Z,31.27
2022-08-17T14:11:45.007Z,31.50
2022-08-17T14:14:33.103Z,31.36
2022-08-17T14:17:20.181Z,31.43
2022-08-17T14:20:10.064Z,31.38
2022-08-17T14:22:57.287Z,31.04
2022-08-17T14:25:45.826Z,31.10
2022-08-17T14:28:33.162Z,31.10
2022-08-17T14:31:23.447Z,31.05
2022-08-17T14:34:10.907Z,30.77
2022-08-17T14:36:57.908Z,30.59
2022-08-17T14:39:44.982Z,30.61
2022-08-17T14:42:34.249Z,30.72
2022-08-17T14:45:32.892Z,30.71
2022-08-17T14:48:20.481Z,30.67
2022-08-17T14:51:07.721Z,30.67
2022-08-17T14:53:55.002Z,30.59
2022-08-17T14:56:42.137Z,30.66
2022-08-17T14:59:32.283Z,30.79
2022-08-17T15:02:19.716Z,30.71
2022-08-17T15:05:07.468Z,30.76
2022-08-17T15:07:55.038Z,30.77
2022-08-17T15:10:42.840Z,30.86
2022-08-17T15:13:31.044Z,30.90
2022-08-17T15:16:19.149Z,30.80
2022-08-17T15:19:07.603Z,30.70
2022-08-17T15:21:54.702Z,30.75
2022-08-17T15:24:41.727Z,30.71
2022-08-17T15:27:32.899Z,30.68
2022-08-17T15:30:20.456Z,30.18
2022-08-17T15:33:07.455Z,30.25
2022-08-17T15:35:55.059Z,30.12
2022-08-17T15:38:42.135Z,30.14
2022-08-17T15:41:31.809Z,29.77
2022-08-17T15:44:19.395Z,29.71
2022-08-17T15:47:06.450Z,30.20
2022-08-17T15:49:57.954Z,30.31
2022-08-17T15:52:47.626Z,30.07
2022-08-17T15:55:35.434Z,30.13
2022-08-17T15:58:22.386Z,29.86
2022-08-17T16:01:42.280Z,29.79
2022-08-17T16:04:31.028Z,29.53
2022-08-17T16:07:26.404Z,29.44
2022-08-17T16:10:18.818Z,29.30
2022-08-17T16:13:06.381Z,29.29
2022-08-17T16:16:05.466Z,29.21
2022-08-17T16:18:54.799Z,29.15
2022-08-17T16:21:45.882Z,29.20
2022-08-17T16:24:33.960Z,29.66
2022-08-17T16:27:21.284Z,29.87
2022-08-17T16:30:11.442Z,30.10
2022-08-17T16:33:02.220Z,30.53
2022-08-17T16:35:49.297Z,30.57
2022-08-17T16:38:36.712Z,31.03
2022-08-17T16:42:02.127Z,30.70
2022-08-17T16:44:49.374Z,29.99
2022-08-17T16:47:36.737Z,29.72
2022-08-17T16:50:24.473Z,29.24
2022-08-17T16:53:17.381Z,28.88
2022-08-17T16:56:05.177Z,28.53
2022-08-17T16:58:53.036Z,28.43
2022-08-17T17:01:40.966Z,28.22
2022-08-17T17:04:28.280Z,28.07
2022-08-17T17:07:36.629Z,28.13
2022-08-17T17:10:44.641Z,28.02
2022-08-17T17:13:54.447Z,27.68
2022-08-17T17:16:57.803Z,27.60
2022-08-17T17:20:03.120Z,27.58
2022-08-17T17:23:00.509Z,27.28
2022-08-17T17:26:10.471Z,27.04
2022-08-17T17:29:21.844Z,26.92
2022-08-17T17:32:31.084Z,26.77
2022-08-17T17:35:26.117Z,26.70
2022-08-17T17:38:22.200Z,26.53
2022-08-17T17:41:15.499Z,26.59
2022-08-17T17:44:11.798Z,26.61
2022-08-17T17:47:01.602Z,26.52
2022-08-17T17:49:49.111Z,26.55
2022-08-17T17:53:02.215Z,26.57
2022-08-17T17:56:04.613Z,26.60
2022-08-17T17:59:00.882Z,26.54
2022-08-17T18:02:45.199Z,26.56
2022-08-17T18:05:56.575Z,26.49
2022-08-17T18:08:58.698Z,26.16
2022-08-17T18:11:51.877Z,26.25
2022-08-17T18:14:58.309Z,26.09
2022-08-17T18:18:15.553Z,26.03
2022-08-17T18:21:06.830Z,25.92
2022-08-17T18:24:03.408Z,25.52
2022-08-17T18:27:08.407Z,25.33
2022-08-17T18:29:58.062Z,25.07
2022-08-17T18:32:46.769Z,24.93
2022-08-17T18:35:35.317Z,24.73
2022-08-17T18:38:28.819Z,24.63
2022-08-17T18:41:21.235Z,24.53
2022-08-17T18:44:35.452Z,24.38
2022-08-17T18:47:25.531Z,24.24
2022-08-17T18:50:41.383Z,24.35
2022-08-17T18:53:39.848Z,24.17
2022-08-17T18:56:31.192Z,24.09
2022-08-17T18:59:33.918Z,24.00
2022-08-17T19:02:44.776Z,23.89
2022-08-17T19:05:38.114Z,23.74
2022-08-17T19:08:36.135Z,23.58
2022-08-17T19:11:31.003Z,23.61
2022-08-17T19:14:21.276Z,23.47
2022-08-17T19:17:22.246Z,23.41
2022-08-17T19:20:21.739Z,23.34
2022-08-17T19:23:14.839Z,23.26
2022-08-17T19:26:07.503Z,23.10
2022-08-17T19:29:26.588Z,23.13
2022-08-17T19:32:18.315Z,23.19
2022-08-17T19:35:13.576Z,23.04
2022-08-17T19:38:13.301Z,22.98
2022-08-17T19:41:14.551Z,22.91
2022-08-17T19:44:33.521Z,22.88
2022-08-17T19:47:53.398Z,22.87
2022-08-17T19:51:13.290Z,22.95
2022-08-17T19:54:14.253Z,22.99
2022-08-17T19:57:24.766Z,22.85
2022-08-17T20:00:16.334Z,22.81
2022-08-17T20:03:22.970Z,22.78
2022-08-17T20:06:13.567Z,22.66
2022-08-17T20:09:15.665Z,22.56
2022-08-17T20:12:11.363Z,22.48
2022-08-17T20:15:11.554Z,22.45
2022-08-17T20:18:01.417Z,22.32
2022-08-17T20:21:19.857Z,22.28
2022-08-17T20:24:19.962Z,22.26
2022-08-17T20:27:21.686Z,22.34
2022-08-17T20:30:40.040Z,22.36
2022-08-17T20:33:34.281Z,22.33
2022-08-17T20:36:24.044Z,22.37
2022-08-17T20:39:31.229Z,22.24
2022-08-17T20:42:21.801Z,22.17
2022-08-17T20:45:41.172Z,22.13
2022-08-17T20:48:38.425Z,22.02
2022-08-17T20:51:34.714Z,21.92
2022-08-17T20:54:31.606Z,22.00
2022-08-17T20:57:31.313Z,21.96
2022-08-17T21:00:45.026Z,21.85
2022-08-17T21:03:50.496Z,21.78
2022-08-17T21:07:18.930Z,21.79
2022-08-17T21:10:23.666Z,21.80
2022-08-17T21:13:15.624Z,21.78
2022-08-17T21:16:27.773Z,21.64
2022-08-17T21:20:08.224Z,21.60
2022-08-17T21:23:12.350Z,21.56
2022-08-17T21:26:11.300Z,21.53
2022-08-17T21:29:30.994Z,21.48
2022-08-17T21:32:30.725Z,21.48
2022-08-17T21:35:27.067Z,21.29
2022-08-17T21:38:16.702Z,21.21
2022-08-17T21:41:04.585Z,21.24
2022-08-17T21:43:53.483Z,21.14
2022-08-17T21:46:46.740Z,21.07
2022-08-17T21:49:37.833Z,21.09
2022-08-17T21:52:27.634Z,21.15
2022-08-17T21:55:28.375Z,21.09
2022-08-17T21:58:36.746Z,21.02
2022-08-17T22:01:29.404Z,20.96
2022-08-17T22:04:28.287Z,20.90
2022-08-17T22:07:15.322Z,20.82
2022-08-17T22:10:02.467Z,20.84
2022-08-17T22:13:17.115Z,20.81
2022-08-17T22:16:04.361Z,20.83
2022-08-17T22:19:04.683Z,20.83
2022-08-17T22:22:03.953Z,20.83
2022-08-17T22:24:57.291Z,20.78
2022-08-17T22:27:46.409Z,20.78
2022-08-17T22:30:55.101Z,20.77
2022-08-17T22:33:44.312Z,20.79
2022-08-17T22:36:37.189Z,20.80
2022-08-17T22:39:26.181Z,20.79
2022-08-17T22:42:14.963Z,20.77
2022-08-17T22:45:02.321Z,20.76
2022-08-17T22:47:49.797Z,20.76
2022-08-17T22:50:37.248Z,20.78
2022-08-17T22:53:42.992Z,20.82
2022-08-17T22:56:51.686Z,20.85
2022-08-17T22:59:45.151Z,20.88
2022-08-17T23:02:34.424Z,20.85
2022-08-17T23:05:21.905Z,20.82
2022-08-17T23:08:11.534Z,20.78
2022-08-17T23:11:00.354Z,20.84
2022-08-17T23:13:47.453Z,20.85
2022-08-17T23:16:35.170Z,20.86
2022-08-17T23:19:22.845Z,20.79
2022-08-17T23:22:11.436Z,20.72
2022-08-17T23:24:59.866Z,20.67
2022-08-17T23:27:49.057Z,20.63
2022-08-17T23:30:39.854Z,20.61
2022-08-17T23:33:30.787Z,20.55
2022-08-17T23:36:18.077Z,20.55
2022-08-17T23:39:06.827Z,20.56
2022-08-17T23:41:54.104Z,20.57
2022-08-17T23:44:43.849Z,20.60
2022-08-17T23:47:31.316Z,20.59
2022-08-17T23:50:18.631Z,20.64
2022-08-17T23:53:07.191Z,20.70
2022-08-17T23:56:09.386Z,20.72
2022-08-17T23:58:58.601Z,20.70
